METAR Data

Data at: 2334 UTC 26 Feb 2020

METAR for:KMVY (Marthas Vineyard Arp, MA, US)
Text:KMVY 262253Z AUTO 06011KT 10SM OVC003 07/06 A2993 RMK AO2 CIG 002V007 SLP135 T00670056
Temperature: 6.7°C ( 44°F)
Dewpoint: 5.6°C ( 42°F) [RH = 93%]
Pressure (altimeter):29.93 inches Hg (1013.6 mb) [Sea level pressure: 1013.5 mb]
Winds:from the ENE (60 degrees) at 13 MPH (11 knots; 5.7 m/s)
Visibility:10 or more sm (16+ km)
Ceiling:300 feet AGL
Clouds: overcast cloud deck at 300 feet AGL
QC Flag:automated observation with no human augmentation